Carnival Splendor — 3EUS — position and weather

sailwx.info

Track history (hours):
 
Tides and Currents Weather Stations Pressure Air Temp Water Temp Dewpoint Dewpoint Depression Visibility Wind Speed Wind Dir Waves Ship Positions

Carnival Splendor

Last reported at 2020-Sep-25 05:47 UTC. Time now 2020-Oct-01 08:04 UTC.
Position N 00°34' E 104°23'.

Length 291 m; draft 8.5 m.

Type: Passenger vessel. MMSI: 372808000.

Date/timePositionNaut miles runAvg speedWind from/ knotsBaromVisibWave heightAir tempDewpointWater temp
2020-Sep-25 05:47N 00°34' E 104°23'17 8.5
2020-Sep-25 03:46N 00°43' E 104°08'0 0.0
2020-Sep-25 00:25N 00°43' E 104°08'0 0.0
2020-Sep-24 16:55N 00°43' E 104°08'0 0.0
2020-Sep-24 15:43N 00°43' E 104°08'0 0.0
2020-Sep-24 15:25N 00°43' E 104°08'0 0.0
2020-Sep-24 13:49N 00°43' E 104°08'2 0.4
2020-Sep-24 07:30N 00°40' E 104°09'12 1.2
2020-Sep-23 21:24N 00°34' E 104°18'1410.2
2020-Sep-23 20:00N 00°35' E 104°33'66 7.9
2020-Sep-23 11:35N 01°40' E 104°44'33 1.1
2020-Sep-22 05:00N 01°17' E 104°20'1312.6
2020-Sep-22 04:00N 01°17' E 104°07'4 7.2
2020-Sep-22 03:30N 01°19' E 104°05'1 0.2
2020-Sep-21 22:58N 01°20' E 104°04'0 0.0
2020-Sep-21 21:58N 01°20' E 104°04'0 0.1
2020-Sep-21 21:28N 01°20' E 104°04'0 0.1
2020-Sep-21 20:28N 01°20' E 104°04'0 0.0
2020-Sep-21 17:28N 01°20' E 104°04'0 0.0
2020-Sep-21 15:58N 01°20' E 104°04'0 0.0
2020-Sep-21 13:58N 01°20' E 104°04'0 0.0
2020-Sep-21 10:07N 01°20' E 104°04'0 0.0
2020-Sep-21 08:28N 01°20' E 104°04'0 0.0
2020-Sep-21 07:30N 01°20' E 104°04'0 0.0
2020-Sep-21 05:30N 01°20' E 104°04'25 6.2
2020-Sep-21 01:30N 01°26' E 104°28'21 0.4
2020-Sep-18 23:13N 01°47' E 104°30'0 0.0
2020-Sep-18 19:37N 01°47' E 104°29'  
2020-Sep-15 23:58N 01°47' E 104°30'  
Track history (hours):
 
Tides and Currents Weather Stations Pressure Air Temp Water Temp Dewpoint Dewpoint Depression Visibility Wind Speed Wind Dir Waves Ship Positions

Carnival Splendor

Last reported at 2020-Sep-25 05:47 UTC. Time now 2020-Oct-01 08:04 UTC.
Position N 00°34' E 104°23'.

Length 291 m; draft 8.5 m.

Type: Passenger vessel. MMSI: 372808000.

Date/timePositionNaut miles runAvg speedWind from/ knotsBaromVisibWave heightAir tempDewpointWater temp
2020-Sep-25 05:47N 00°34' E 104°23'17 8.5
2020-Sep-25 03:46N 00°43' E 104°08'0 0.0
2020-Sep-25 00:25N 00°43' E 104°08'0 0.0
2020-Sep-24 16:55N 00°43' E 104°08'0 0.0
2020-Sep-24 15:43N 00°43' E 104°08'0 0.0
2020-Sep-24 15:25N 00°43' E 104°08'0 0.0
2020-Sep-24 13:49N 00°43' E 104°08'2 0.4
2020-Sep-24 07:30N 00°40' E 104°09'12 1.2
2020-Sep-23 21:24N 00°34' E 104°18'1410.2
2020-Sep-23 20:00N 00°35' E 104°33'66 7.9
2020-Sep-23 11:35N 01°40' E 104°44'33 1.1
2020-Sep-22 05:00N 01°17' E 104°20'1312.6
2020-Sep-22 04:00N 01°17' E 104°07'4 7.2
2020-Sep-22 03:30N 01°19' E 104°05'1 0.2
2020-Sep-21 22:58N 01°20' E 104°04'0 0.0
2020-Sep-21 21:58N 01°20' E 104°04'0 0.1
2020-Sep-21 21:28N 01°20' E 104°04'0 0.1
2020-Sep-21 20:28N 01°20' E 104°04'0 0.0
2020-Sep-21 17:28N 01°20' E 104°04'0 0.0
2020-Sep-21 15:58N 01°20' E 104°04'0 0.0
2020-Sep-21 13:58N 01°20' E 104°04'0 0.0
2020-Sep-21 10:07N 01°20' E 104°04'0 0.0
2020-Sep-21 08:28N 01°20' E 104°04'0 0.0
2020-Sep-21 07:30N 01°20' E 104°04'0 0.0
2020-Sep-21 05:30N 01°20' E 104°04'25 6.2
2020-Sep-21 01:30N 01°26' E 104°28'21 0.4
2020-Sep-18 23:13N 01°47' E 104°30'0 0.0
2020-Sep-18 19:37N 01°47' E 104°29'  
2020-Sep-15 23:58N 01°47' E 104°30'  

Dump ship's entire track history